Time;durP1;ratioP1;P1;durP2;ratioP2;P2;SDS_P1;SDS_P2;PMS_P1;PMS_P2;Temp;Humidity;BMP_temperature;BMP_pressure;BME280_temperature;BME280_humidity;BME280_pressure;Samples;Min_cycle;Max_cycle;Signal;HPM_P1;HPM_P2
2023/12/10 00:00:35;;;;;;;12.90;2.30;;;;;;;;;;6318747;22;20415;-87
2023/12/10 00:03:01;;;;;;;5.07;1.90;;;;;;;;;;6312974;22;20395;-86
2023/12/10 00:05:27;;;;;;;6.73;2.63;;;;;;;;;;6316690;22;20383;-85
2023/12/10 00:07:53;;;;;;;4.03;1.87;;;;;;;;;;6313663;22;20387;-85
2023/12/10 00:10:19;;;;;;;17.70;3.13;;;;;;;;;;6315934;22;20497;-85
2023/12/10 00:12:45;;;;;;;10.80;2.13;;;;;;;;;;6312504;22;20437;-85
2023/12/10 00:15:13;;;;;;;7.03;2.00;;;;;;;;;;6312149;22;20406;-86
2023/12/10 00:17:39;;;;;;;7.60;1.90;;;;;;;;;;6339926;22;20364;-85
2023/12/10 00:20:05;;;;;;;13.83;3.33;;;;;;;;;;6339259;22;20374;-85
2023/12/10 00:22:31;;;;;;;4.93;2.17;;;;;;;;;;6341229;22;20842;-85
2023/12/10 00:24:57;;;;;;;6.80;2.33;;;;;;;;;;6312357;22;20419;-86
2023/12/10 00:27:23;;;;;;;3.87;1.83;;;;;;;;;;6316615;22;20378;-84
2023/12/10 00:29:50;;;;;;;9.47;2.87;;;;;;;;;;6313583;22;20411;-85
2023/12/10 00:32:16;;;;;;;12.50;1.90;;;;;;;;;;6320395;22;20380;-86
2023/12/10 00:34:42;;;;;;;14.80;2.70;;;;;;;;;;6315998;22;20735;-86
2023/12/10 00:37:08;;;;;;;12.80;2.87;;;;;;;;;;6313109;22;20399;-85
2023/12/10 00:39:35;;;;;;;7.00;2.10;;;;;;;;;;6311142;22;20376;-86
2023/12/10 00:42:01;;;;;;;8.23;2.73;;;;;;;;;;6315107;22;20372;-86
2023/12/10 00:44:27;;;;;;;8.77;2.30;;;;;;;;;;6313480;22;20397;-85
2023/12/10 00:46:53;;;;;;;9.83;1.97;;;;;;;;;;6312739;22;20391;-87
2023/12/10 00:49:19;;;;;;;13.93;2.13;;;;;;;;;;6307838;22;20376;-86
2023/12/10 00:51:45;;;;;;;12.67;3.00;;;;;;;;;;6336709;22;20928;-85
2023/12/10 00:54:11;;;;;;;27.07;4.00;;;;;;;;;;6313556;22;20407;-85
2023/12/10 00:56:37;;;;;;;13.40;2.97;;;;;;;;;;6317714;22;20405;-85
2023/12/10 00:59:03;;;;;;;16.30;3.27;;;;;;;;;;6316814;22;20505;-85
2023/12/10 01:01:29;;;;;;;15.47;2.73;;;;;;;;;;6314657;22;20382;-86
2023/12/10 01:03:55;;;;;;;14.80;4.00;;;;;;;;;;6346039;22;20383;-86
2023/12/10 01:06:22;;;;;;;8.73;2.77;;;;;;;;;;6313592;22;20440;-86
2023/12/10 01:08:57;;;;;;;17.37;3.60;;;;;;;;;;6314740;22;20953;-83
2023/12/10 01:11:23;;;;;;;13.60;3.00;;;;;;;;;;6314281;22;20418;-85
2023/12/10 01:13:49;;;;;;;11.57;3.00;;;;;;;;;;6315761;22;20375;-86
2023/12/10 01:16:16;;;;;;;9.83;3.53;;;;;;;;;;6340713;22;20442;-86
2023/12/10 01:18:43;;;;;;;10.67;2.67;;;;;;;;;;6315883;22;20420;-86
2023/12/10 01:21:09;;;;;;;12.87;2.93;;;;;;;;;;6315218;22;20851;-86
2023/12/10 01:23:36;;;;;;;13.23;3.70;;;;;;;;;;6315443;22;20405;-86
2023/12/10 01:26:02;;;;;;;12.40;3.33;;;;;;;;;;6321047;22;20367;-86
2023/12/10 01:28:28;;;;;;;9.83;3.20;;;;;;;;;;6317742;22;20462;-86
2023/12/10 01:30:54;;;;;;;17.03;2.87;;;;;;;;;;6314654;22;20411;-87
2023/12/10 01:33:20;;;;;;;16.60;2.90;;;;;;;;;;6326885;22;20470;-87
2023/12/10 01:35:46;;;;;;;14.40;3.00;;;;;;;;;;6322114;22;20372;-86
2023/12/10 01:38:12;;;;;;;14.30;3.67;;;;;;;;;;6323836;22;20470;-86
2023/12/10 01:40:38;;;;;;;10.33;2.60;;;;;;;;;;6313229;22;20402;-86
2023/12/10 01:43:08;;;;;;;8.63;2.23;;;;;;;;;;6314569;22;20879;-86
2023/12/10 01:45:34;;;;;;;10.73;2.93;;;;;;;;;;6314748;22;20374;-86
2023/12/10 01:48:00;;;;;;;11.20;3.27;;;;;;;;;;6318173;22;20419;-86
2023/12/10 01:50:26;;;;;;;11.70;3.33;;;;;;;;;;6312330;22;20427;-87
2023/12/10 01:52:53;;;;;;;13.80;5.20;;;;;;;;;;6314429;22;20380;-87
2023/12/10 01:55:19;;;;;;;6.27;3.37;;;;;;;;;;6315881;22;20468;-84
2023/12/10 01:57:45;;;;;;;14.20;3.03;;;;;;;;;;6344484;22;20437;-85
2023/12/10 02:00:12;;;;;;;7.50;3.10;;;;;;;;;;6315955;22;20387;-85
2023/12/10 02:02:38;;;;;;;18.47;3.07;;;;;;;;;;6319567;22;20425;-86
2023/12/10 02:05:05;;;;;;;10.07;3.00;;;;;;;;;;6317114;22;20392;-86
2023/12/10 02:07:31;;;;;;;10.57;3.23;;;;;;;;;;6315672;22;20379;-85
2023/12/10 02:09:57;;;;;;;15.77;3.10;;;;;;;;;;6314432;22;20506;-86
2023/12/10 02:12:23;;;;;;;9.43;3.57;;;;;;;;;;6315434;22;20390;-85
2023/12/10 02:14:49;;;;;;;19.87;4.20;;;;;;;;;;6317581;22;20855;-86
2023/12/10 02:17:18;;;;;;;14.07;3.17;;;;;;;;;;6315738;22;20359;-85
2023/12/10 02:19:44;;;;;;;15.83;3.70;;;;;;;;;;6319112;22;20359;-85
2023/12/10 02:22:14;;;;;;;18.83;4.10;;;;;;;;;;6321198;22;20390;-87
2023/12/10 02:24:45;;;;;;;23.23;3.30;;;;;;;;;;6317091;22;20397;-86
2023/12/10 02:27:11;;;;;;;14.90;3.40;;;;;;;;;;6316514;22;20390;-87
2023/12/10 02:29:37;;;;;;;6.90;2.90;;;;;;;;;;6315072;22;20375;-86
2023/12/10 02:32:03;;;;;;;13.77;3.83;;;;;;;;;;6319577;22;20376;-86
2023/12/10 02:34:29;;;;;;;12.40;3.80;;;;;;;;;;6317186;22;20375;-86
2023/12/10 02:37:04;;;;;;;10.03;2.60;;;;;;;;;;6348051;22;20359;-86
2023/12/10 02:39:30;;;;;;;4.70;1.93;;;;;;;;;;6286882;22;20455;-86
2023/12/10 02:41:56;;;;;;;5.90;2.30;;;;;;;;;;6284519;22;20400;-85
2023/12/10 02:44:22;;;;;;;6.50;1.30;;;;;;;;;;6284239;22;20749;-85
2023/12/10 02:46:48;;;;;;;4.37;1.80;;;;;;;;;;6284507;22;20373;-87
2023/12/10 02:49:14;;;;;;;8.60;1.90;;;;;;;;;;6284521;22;20372;-86
2023/12/10 02:51:40;;;;;;;7.20;1.63;;;;;;;;;;6283429;22;20447;-86
2023/12/10 02:54:06;;;;;;;4.30;1.47;;;;;;;;;;6286591;22;21163;-86
2023/12/10 02:56:38;;;;;;;7.10;1.80;;;;;;;;;;6282681;22;20384;-87
2023/12/10 02:59:04;;;;;;;9.50;1.87;;;;;;;;;;6284195;22;20733;-87
2023/12/10 03:01:30;;;;;;;3.60;2.10;;;;;;;;;;6283220;22;20376;-87
2023/12/10 03:03:56;;;;;;;7.20;2.00;;;;;;;;;;6286835;22;20788;-87
2023/12/10 03:06:22;;;;;;;4.33;1.87;;;;;;;;;;6283401;22;20369;-87
2023/12/10 03:08:48;;;;;;;10.03;2.77;;;;;;;;;;6288615;22;20458;-87
2023/12/10 03:11:14;;;;;;;4.77;1.60;;;;;;;;;;6329494;22;20444;-87
2023/12/10 03:13:40;;;;;;;5.27;1.20;;;;;;;;;;6316993;22;20405;-87
2023/12/10 03:16:06;;;;;;;2.27;0.87;;;;;;;;;;6313600;22;20371;-87
2023/12/10 03:18:33;;;;;;;5.57;1.10;;;;;;;;;;6316895;22;20383;-87
2023/12/10 03:20:59;;;;;;;5.13;3.00;;;;;;;;;;6315020;22;20388;-86
2023/12/10 03:23:25;;;;;;;4.97;2.10;;;;;;;;;;6316225;22;20426;-87
2023/12/10 03:25:51;;;;;;;6.03;1.90;;;;;;;;;;6317147;22;20411;-87
2023/12/10 03:28:17;;;;;;;10.00;1.53;;;;;;;;;;6316129;22;20391;-86
2023/12/10 03:30:43;;;;;;;3.27;1.73;;;;;;;;;;6315936;22;20759;-86
2023/12/10 03:33:09;;;;;;;6.27;1.70;;;;;;;;;;6317355;22;20380;-86
2023/12/10 03:35:35;;;;;;;3.50;1.00;;;;;;;;;;6319825;22;20414;-86
2023/12/10 03:38:01;;;;;;;9.30;1.43;;;;;;;;;;6316503;22;20835;-86
2023/12/10 03:40:27;;;;;;;7.83;1.67;;;;;;;;;;6320352;22;20470;-87
2023/12/10 03:42:53;;;;;;;4.87;1.40;;;;;;;;;;6315627;22;20429;-86
2023/12/10 03:45:19;;;;;;;9.93;2.07;;;;;;;;;;6317787;22;20438;-86
2023/12/10 03:47:46;;;;;;;4.80;1.60;;;;;;;;;;6316698;22;20367;-87
2023/12/10 03:50:16;;;;;;;7.80;1.90;;;;;;;;;;6345821;22;20407;-86
2023/12/10 03:52:42;;;;;;;8.40;2.30;;;;;;;;;;6342321;22;20383;-87
2023/12/10 03:55:08;;;;;;;4.50;1.97;;;;;;;;;;6317193;22;20483;-85
2023/12/10 03:57:34;;;;;;;7.13;2.90;;;;;;;;;;6317930;22;20394;-86
2023/12/10 04:00:01;;;;;;;5.00;2.13;;;;;;;;;;6317772;22;20394;-86
2023/12/10 04:02:27;;;;;;;9.33;2.37;;;;;;;;;;6342237;22;20395;-88
2023/12/10 04:04:53;;;;;;;12.60;2.10;;;;;;;;;;6317017;22;20391;-87
2023/12/10 04:07:19;;;;;;;8.67;2.20;;;;;;;;;;6339313;22;20466;-86
2023/12/10 04:09:45;;;;;;;4.47;1.57;;;;;;;;;;6323806;22;20679;-86
2023/12/10 04:12:11;;;;;;;1.87;1.27;;;;;;;;;;6313225;22;20387;-86
2023/12/10 04:14:37;;;;;;;5.77;1.73;;;;;;;;;;6315639;22;20717;-87
2023/12/10 04:17:04;;;;;;;10.30;2.20;;;;;;;;;;6316097;22;20379;-87
2023/12/10 04:19:30;;;;;;;18.53;1.80;;;;;;;;;;6317865;22;20376;-86
2023/12/10 04:21:56;;;;;;;6.27;1.37;;;;;;;;;;6316087;22;20443;-86
2023/12/10 04:24:22;;;;;;;5.27;2.07;;;;;;;;;;6316785;22;20487;-86
2023/12/10 04:26:48;;;;;;;9.83;2.57;;;;;;;;;;6316362;22;20371;-87
2023/12/10 04:29:14;;;;;;;6.67;1.97;;;;;;;;;;6340626;22;20363;-83
2023/12/10 04:31:40;;;;;;;7.00;2.07;;;;;;;;;;6314689;22;20415;-86
2023/12/10 04:34:06;;;;;;;5.23;1.47;;;;;;;;;;6313490;22;20375;-86
2023/12/10 04:36:32;;;;;;;9.00;1.97;;;;;;;;;;6316641;22;20378;-86
2023/12/10 04:38:58;;;;;;;5.90;1.90;;;;;;;;;;6314403;22;20407;-86
2023/12/10 04:41:24;;;;;;;5.13;2.10;;;;;;;;;;6319878;22;20385;-86
2023/12/10 04:43:51;;;;;;;3.93;1.57;;;;;;;;;;6340887;22;20364;-86
2023/12/10 04:46:17;;;;;;;4.17;2.50;;;;;;;;;;6315269;22;20363;-87
2023/12/10 04:48:43;;;;;;;7.20;1.83;;;;;;;;;;6313309;22;20386;-87
2023/12/10 04:51:09;;;;;;;5.43;2.03;;;;;;;;;;6316867;22;20426;-88
2023/12/10 04:53:36;;;;;;;8.37;1.23;;;;;;;;;;6340216;22;20910;-86
2023/12/10 04:56:02;;;;;;;5.83;2.33;;;;;;;;;;6317979;22;20406;-87
2023/12/10 04:58:29;;;;;;;7.33;1.63;;;;;;;;;;6314885;22;20384;-84
2023/12/10 05:00:55;;;;;;;7.07;2.20;;;;;;;;;;6315815;22;20380;-87
2023/12/10 05:03:21;;;;;;;5.50;2.10;;;;;;;;;;6314564;22;20484;-85
2023/12/10 05:05:47;;;;;;;3.20;1.23;;;;;;;;;;6320354;22;20387;-87
2023/12/10 05:08:13;;;;;;;6.30;1.60;;;;;;;;;;6341882;22;20693;-86
2023/12/10 05:10:39;;;;;;;4.80;1.50;;;;;;;;;;6316071;22;20415;-90
2023/12/10 05:13:06;;;;;;;4.63;2.07;;;;;;;;;;6318514;22;20386;-90
2023/12/10 05:15:32;;;;;;;5.33;1.47;;;;;;;;;;6340976;22;20384;-89
2023/12/10 05:17:59;;;;;;;7.93;2.20;;;;;;;;;;6316887;22;20608;-90
2023/12/10 05:20:25;;;;;;;6.87;2.07;;;;;;;;;;6315314;22;20423;-91
2023/12/10 05:22:51;;;;;;;2.10;1.33;;;;;;;;;;6321625;22;20443;-90
2023/12/10 05:25:17;;;;;;;10.40;2.13;;;;;;;;;;6317707;22;20920;-89
2023/12/10 05:27:43;;;;;;;6.00;1.67;;;;;;;;;;6340986;22;20367;-89
2023/12/10 05:30:10;;;;;;;8.20;1.87;;;;;;;;;;6316805;22;20419;-91
2023/12/10 05:32:37;;;;;;;7.80;2.20;;;;;;;;;;6315711;22;20411;-90
2023/12/10 05:35:03;;;;;;;12.03;2.27;;;;;;;;;;6319425;22;20707;-89
2023/12/10 05:37:29;;;;;;;5.60;2.00;;;;;;;;;;6314309;22;20380;-89
2023/12/10 05:39:55;;;;;;;5.80;1.90;;;;;;;;;;6344931;22;20363;-89
2023/12/10 05:42:21;;;;;;;7.50;2.10;;;;;;;;;;6341338;22;20383;-89
2023/12/10 05:44:48;;;;;;;1.93;1.57;;;;;;;;;;6323954;22;20435;-89
2023/12/10 05:47:14;;;;;;;1.67;1.50;;;;;;;;;;6315789;22;20376;-90
2023/12/10 05:49:40;;;;;;;2.87;1.53;;;;;;;;;;6319842;22;20371;-90
2023/12/10 05:52:06;;;;;;;9.50;2.13;;;;;;;;;;6317471;22;20405;-91
2023/12/10 05:54:33;;;;;;;9.30;2.40;;;;;;;;;;6346985;22;20831;-89
2023/12/10 05:56:59;;;;;;;9.40;2.77;;;;;;;;;;6318540;22;20449;-89
2023/12/10 05:59:26;;;;;;;6.63;1.83;;;;;;;;;;6320251;22;20368;-90
2023/12/10 06:01:52;;;;;;;8.97;2.37;;;;;;;;;;6320162;22;20419;-88
2023/12/10 06:04:17;;;;;;;13.13;2.20;;;;;;;;;;6319626;22;20387;-90
2023/12/10 06:06:43;;;;;;;10.90;1.63;;;;;;;;;;6317375;22;20383;-90
2023/12/10 06:09:10;;;;;;;8.50;1.53;;;;;;;;;;6318091;22;20429;-90
2023/12/10 06:11:36;;;;;;;6.50;1.60;;;;;;;;;;6318741;22;20443;-89
2023/12/10 06:14:02;;;;;;;7.53;1.57;;;;;;;;;;6319719;22;20383;-90
2023/12/10 06:16:29;;;;;;;5.63;1.90;;;;;;;;;;6347427;22;20427;-89
2023/12/10 06:18:55;;;;;;;9.23;1.83;;;;;;;;;;6318294;22;20360;-89
2023/12/10 06:21:21;;;;;;;4.43;1.23;;;;;;;;;;6345600;22;20714;-90
2023/12/10 06:23:47;;;;;;;14.83;2.73;;;;;;;;;;6317243;22;20380;-89
2023/12/10 06:26:13;;;;;;;2.13;1.10;;;;;;;;;;6317694;22;20905;-88
2023/12/10 06:28:39;;;;;;;4.10;1.60;;;;;;;;;;6318441;22;20466;-89
2023/12/10 06:31:05;;;;;;;4.77;1.63;;;;;;;;;;6344081;22;20433;-90
2023/12/10 06:33:32;;;;;;;7.30;2.00;;;;;;;;;;6343818;22;20819;-89
2023/12/10 06:35:58;;;;;;;6.33;1.80;;;;;;;;;;6318338;22;20458;-90
2023/12/10 06:38:24;;;;;;;8.87;2.23;;;;;;;;;;6344636;22;20364;-89
2023/12/10 06:40:51;;;;;;;10.73;2.73;;;;;;;;;;6317700;22;20428;-90
2023/12/10 06:43:17;;;;;;;3.80;1.50;;;;;;;;;;6343283;22;20390;-89
2023/12/10 06:45:43;;;;;;;13.40;2.00;;;;;;;;;;6324101;22;20406;-90
2023/12/10 06:48:09;;;;;;;7.87;1.53;;;;;;;;;;6317963;22;20379;-90
2023/12/10 06:50:35;;;;;;;2.80;1.90;;;;;;;;;;6319923;22;20441;-90
2023/12/10 06:53:01;;;;;;;6.77;1.90;;;;;;;;;;6318894;22;20380;-90
2023/12/10 06:55:27;;;;;;;5.53;1.63;;;;;;;;;;6321620;22;20432;-89
2023/12/10 06:57:53;;;;;;;7.77;1.63;;;;;;;;;;6345207;22;20367;-90
2023/12/10 07:00:19;;;;;;;6.17;2.00;;;;;;;;;;6320884;22;20472;-90
2023/12/10 07:02:45;;;;;;;4.00;1.77;;;;;;;;;;6321005;22;20706;-90
2023/12/10 07:05:11;;;;;;;4.63;1.90;;;;;;;;;;6321705;22;20379;-90
2023/12/10 07:07:38;;;;;;;3.73;1.63;;;;;;;;;;6318808;22;20376;-89
2023/12/10 07:10:04;;;;;;;6.23;1.53;;;;;;;;;;6318580;22;20415;-90
2023/12/10 07:12:30;;;;;;;3.87;1.80;;;;;;;;;;6318269;22;20390;-89
2023/12/10 07:14:56;;;;;;;11.37;2.60;;;;;;;;;;6344321;22;20374;-90
2023/12/10 07:17:22;;;;;;;5.83;1.73;;;;;;;;;;6319750;22;20368;-89
2023/12/10 07:19:49;;;;;;;3.57;1.50;;;;;;;;;;6324249;22;20375;-90
2023/12/10 07:22:15;;;;;;;4.20;1.83;;;;;;;;;;6317617;22;20376;-89
2023/12/10 07:24:41;;;;;;;4.33;1.63;;;;;;;;;;6321186;22;20378;-90
2023/12/10 07:27:07;;;;;;;4.47;1.70;;;;;;;;;;6343624;22;20367;-89
2023/12/10 07:29:33;;;;;;;4.43;1.47;;;;;;;;;;6318819;22;20891;-89
2023/12/10 07:31:59;;;;;;;13.13;1.90;;;;;;;;;;6317437;22;20418;-90
2023/12/10 07:34:25;;;;;;;5.60;1.43;;;;;;;;;;6319594;22;21041;-91
2023/12/10 07:36:51;;;;;;;7.90;1.80;;;;;;;;;;6320269;22;20938;-90
2023/12/10 07:39:17;;;;;;;9.40;3.27;;;;;;;;;;6317011;22;20382;-90
2023/12/10 07:41:43;;;;;;;4.70;1.77;;;;;;;;;;6319987;22;20375;-90
2023/12/10 07:44:09;;;;;;;6.73;1.63;;;;;;;;;;6317057;22;20379;-90
2023/12/10 07:46:36;;;;;;;7.27;1.77;;;;;;;;;;6316943;22;20392;-90
2023/12/10 07:49:02;;;;;;;3.87;1.53;;;;;;;;;;6315497;22;20379;-90
2023/12/10 07:51:28;;;;;;;2.67;2.03;;;;;;;;;;6319829;22;20470;-89
2023/12/10 07:53:53;;;;;;;3.27;1.80;;;;;;;;;;6314762;22;20921;-89
2023/12/10 07:56:20;;;;;;;8.60;2.23;;;;;;;;;;6317431;22;20371;-89
2023/12/10 07:58:46;;;;;;;7.73;2.00;;;;;;;;;;6317567;22;20379;-90
2023/12/10 08:01:12;;;;;;;6.97;2.00;;;;;;;;;;6318310;22;20379;-89
2023/12/10 08:03:38;;;;;;;12.33;2.50;;;;;;;;;;6319669;22;20823;-89
2023/12/10 08:06:04;;;;;;;3.70;2.17;;;;;;;;;;6318406;22;20395;-89
2023/12/10 08:08:30;;;;;;;6.40;1.70;;;;;;;;;;6320102;22;20863;-90
2023/12/10 08:10:56;;;;;;;5.00;2.17;;;;;;;;;;6318204;22;20421;-89
2023/12/10 08:13:23;;;;;;;5.03;1.63;;;;;;;;;;6319557;22;20380;-90
2023/12/10 08:15:49;;;;;;;4.10;1.37;;;;;;;;;;6319130;22;20724;-89
2023/12/10 08:18:15;;;;;;;5.00;1.80;;;;;;;;;;6316941;22;20380;-89
2023/12/10 08:20:41;;;;;;;5.80;1.50;;;;;;;;;;6316042;22;20473;-89
2023/12/10 08:23:07;;;;;;;4.40;1.53;;;;;;;;;;6321759;22;20384;-89
2023/12/10 08:25:33;;;;;;;11.30;2.60;;;;;;;;;;6317730;22;20449;-90
2023/12/10 08:27:59;;;;;;;2.70;1.50;;;;;;;;;;6316393;22;20466;-85
2023/12/10 08:30:25;;;;;;;4.60;1.90;;;;;;;;;;6341754;22;20415;-90
2023/12/10 08:32:51;;;;;;;5.97;1.67;;;;;;;;;;6319117;22;20379;-89
2023/12/10 08:35:17;;;;;;;8.20;2.03;;;;;;;;;;6317890;22;20372;-90
2023/12/10 08:37:43;;;;;;;7.90;1.43;;;;;;;;;;6320611;22;20375;-91
2023/12/10 08:40:09;;;;;;;4.70;4.07;;;;;;;;;;6344909;22;20363;-90
2023/12/10 08:42:35;;;;;;;3.97;1.50;;;;;;;;;;6343721;22;20861;-90
2023/12/10 08:45:01;;;;;;;9.73;3.20;;;;;;;;;;6317524;22;20387;-90
2023/12/10 08:47:27;;;;;;;4.60;1.97;;;;;;;;;;6318685;22;20379;-90
2023/12/10 08:49:53;;;;;;;2.90;1.57;;;;;;;;;;6343615;22;20368;-89
2023/12/10 08:52:19;;;;;;;2.53;1.70;;;;;;;;;;6317567;22;20380;-90
2023/12/10 08:54:45;;;;;;;8.07;1.97;;;;;;;;;;6320238;22;20372;-90
2023/12/10 08:57:13;;;;;;;2.53;2.00;;;;;;;;;;6318036;22;20364;-89
2023/12/10 08:59:39;;;;;;;4.53;1.50;;;;;;;;;;6317711;22;20383;-90
2023/12/10 09:02:05;;;;;;;9.43;2.20;;;;;;;;;;6312773;22;20884;-90
2023/12/10 09:04:35;;;;;;;6.47;1.87;;;;;;;;;;6313680;22;20430;-90
2023/12/10 09:07:01;;;;;;;7.33;1.50;;;;;;;;;;6316867;22;20383;-88
2023/12/10 09:09:28;;;;;;;5.13;2.10;;;;;;;;;;6311909;22;20383;-90
2023/12/10 09:11:54;;;;;;;4.23;1.37;;;;;;;;;;6309447;22;20464;-89
2023/12/10 09:14:21;;;;;;;8.33;1.70;;;;;;;;;;6255889;22;21098;-89
2023/12/10 09:16:50;;;;;;;6.50;2.10;;;;;;;;;;6255963;22;20380;-89
2023/12/10 09:19:17;;;;;;;6.13;1.90;;;;;;;;;;6255599;22;20732;-89
2023/12/10 09:21:43;;;;;;;3.47;1.60;;;;;;;;;;6255334;22;20380;-89
2023/12/10 09:24:09;;;;;;;9.20;1.47;;;;;;;;;;6255627;22;20388;-88
2023/12/10 09:26:36;;;;;;;3.43;2.13;;;;;;;;;;6259684;22;20391;-88
2023/12/10 09:29:03;;;;;;;1.53;1.00;;;;;;;;;;6282951;22;20372;-90
2023/12/10 09:31:29;;;;;;;6.63;1.60;;;;;;;;;;6284094;22;20820;-89
2023/12/10 09:33:55;;;;;;;6.80;1.70;;;;;;;;;;6256673;22;20860;-86
2023/12/10 09:36:21;;;;;;;4.87;1.60;;;;;;;;;;6261891;22;20376;-87
2023/12/10 09:38:47;;;;;;;7.23;3.10;;;;;;;;;;6258196;22;20388;-88
2023/12/10 09:41:13;;;;;;;7.90;1.10;;;;;;;;;;6258870;22;20828;-87
2023/12/10 09:43:39;;;;;;;6.50;1.70;;;;;;;;;;6303073;22;20367;-88
2023/12/10 09:46:06;;;;;;;6.20;2.00;;;;;;;;;;6316746;22;20391;-88
2023/12/10 09:48:32;;;;;;;2.57;1.80;;;;;;;;;;6313680;22;20376;-87
2023/12/10 09:50:58;;;;;;;4.40;1.73;;;;;;;;;;6343790;22;20465;-88
2023/12/10 09:53:24;;;;;;;8.27;2.40;;;;;;;;;;6316346;22;20380;-87
2023/12/10 09:55:50;;;;;;;4.67;1.30;;;;;;;;;;6284042;22;20369;-87
2023/12/10 09:58:16;;;;;;;3.00;1.27;;;;;;;;;;6257705;22;20491;-86
2023/12/10 10:00:42;;;;;;;1.67;1.27;;;;;;;;;;6259424;22;20387;-87
2023/12/10 10:03:09;;;;;;;5.33;1.80;;;;;;;;;;6258612;22;20392;-88
2023/12/10 10:05:36;;;;;;;1.13;1.03;;;;;;;;;;6258137;22;20420;-87
2023/12/10 10:08:02;;;;;;;2.00;1.40;;;;;;;;;;6260839;22;20372;-87
2023/12/10 10:10:29;;;;;;;6.43;1.63;;;;;;;;;;6258538;22;20686;-90
2023/12/10 10:12:56;;;;;;;2.80;1.40;;;;;;;;;;6256092;22;20411;-89
2023/12/10 10:15:25;;;;;;;3.50;1.50;;;;;;;;;;6259559;22;20391;-88
2023/12/10 10:17:51;;;;;;;5.50;1.80;;;;;;;;;;6257130;22;20380;-89
2023/12/10 10:20:18;;;;;;;9.60;2.10;;;;;;;;;;6257218;22;20380;-89
2023/12/10 10:22:44;;;;;;;7.10;1.63;;;;;;;;;;6256170;22;20380;-89
2023/12/10 10:25:10;;;;;;;5.67;1.73;;;;;;;;;;6260184;22;20522;-88
2023/12/10 10:27:36;;;;;;;1.57;1.27;;;;;;;;;;6305273;22;20376;-90
2023/12/10 10:30:03;;;;;;;8.67;2.00;;;;;;;;;;6320066;22;20965;-90
2023/12/10 10:32:30;;;;;;;2.00;1.50;;;;;;;;;;6314262;22;20384;-83
2023/12/10 10:34:57;;;;;;;14.10;2.50;;;;;;;;;;6344653;22;20364;-88
2023/12/10 10:37:24;;;;;;;2.40;1.33;;;;;;;;;;6322625;22;20382;-88
2023/12/10 10:39:50;;;;;;;8.20;2.00;;;;;;;;;;6318164;22;20378;-89
2023/12/10 10:42:19;;;;;;;7.57;2.00;;;;;;;;;;6319181;22;20702;-88
2023/12/10 10:44:46;;;;;;;5.73;1.70;;;;;;;;;;6315937;22;20380;-88
2023/12/10 10:47:12;;;;;;;4.63;1.70;;;;;;;;;;6319375;22;20728;-89
2023/12/10 10:49:42;;;;;;;3.00;1.70;;;;;;;;;;6340452;22;20846;-89
2023/12/10 10:52:10;;;;;;;5.47;1.73;;;;;;;;;;6319258;22;20868;-89
2023/12/10 10:54:36;;;;;;;2.57;1.43;;;;;;;;;;6317236;22;21074;-88
2023/12/10 10:57:05;;;;;;;4.87;1.50;;;;;;;;;;6319139;22;20375;-89
2023/12/10 10:59:31;;;;;;;5.57;2.00;;;;;;;;;;6313355;22;20409;-89
2023/12/10 11:02:01;;;;;;;3.93;2.17;;;;;;;;;;6317680;22;20363;-88
2023/12/10 11:04:40;;;;;;;10.90;1.40;;;;;;;;;;6314154;22;20421;-89
2023/12/10 11:07:06;;;;;;;3.53;1.60;;;;;;;;;;6320214;22;20409;-89
2023/12/10 11:09:32;;;;;;;6.90;1.80;;;;;;;;;;6314100;22;20372;-87
2023/12/10 11:11:58;;;;;;;5.70;1.37;;;;;;;;;;6342724;22;20825;-89
2023/12/10 11:14:25;;;;;;;7.33;1.67;;;;;;;;;;6315010;22;20384;-88
2023/12/10 11:16:54;;;;;;;5.40;1.60;;;;;;;;;;6342387;22;20371;-89
2023/12/10 11:19:22;;;;;;;6.93;1.70;;;;;;;;;;6315488;22;20371;-90
2023/12/10 11:21:49;;;;;;;5.23;2.00;;;;;;;;;;6317648;22;20379;-88
2023/12/10 11:24:15;;;;;;;5.07;1.70;;;;;;;;;;6316555;22;20850;-88
2023/12/10 11:26:41;;;;;;;2.20;1.47;;;;;;;;;;6317828;22;20432;-88
2023/12/10 11:29:08;;;;;;;4.70;1.20;;;;;;;;;;6316130;22;20375;-88
2023/12/10 11:31:35;;;;;;;5.80;1.80;;;;;;;;;;6341039;22;20411;-90
2023/12/10 11:34:01;;;;;;;10.63;3.40;;;;;;;;;;6310256;22;20384;-89
2023/12/10 11:36:27;;;;;;;5.33;1.80;;;;;;;;;;6314096;22;20425;-90
2023/12/10 11:38:53;;;;;;;5.33;1.70;;;;;;;;;;6315213;22;20715;-90
2023/12/10 11:41:20;;;;;;;4.03;1.20;;;;;;;;;;6313627;22;20379;-90
2023/12/10 11:43:46;;;;;;;2.80;1.27;;;;;;;;;;6311051;22;20383;-89
2023/12/10 11:46:22;;;;;;;6.20;2.90;;;;;;;;;;6311514;22;20493;-90
2023/12/10 11:48:48;;;;;;;16.40;2.47;;;;;;;;;;6309669;22;20402;-90
2023/12/10 11:51:14;;;;;;;5.30;1.57;;;;;;;;;;6311158;22;20450;-89
2023/12/10 11:53:40;;;;;;;10.73;2.03;;;;;;;;;;6311682;22;20383;-90
2023/12/10 11:56:14;;;;;;;6.43;1.73;;;;;;;;;;6314008;22;20796;-88
2023/12/10 11:58:42;;;;;;;4.50;1.53;;;;;;;;;;6313016;22;20394;-90
2023/12/10 12:01:08;;;;;;;3.80;1.93;;;;;;;;;;6313852;22;20379;-90
2023/12/10 12:03:35;;;;;;;10.90;3.10;;;;;;;;;;6309730;22;20379;-89
2023/12/10 12:06:04;;;;;;;3.00;1.63;;;;;;;;;;6314986;22;20386;-88
2023/12/10 12:08:32;;;;;;;5.33;1.87;;;;;;;;;;6309242;22;20903;-90
2023/12/10 12:10:58;;;;;;;6.37;1.70;;;;;;;;;;6308347;22;20403;-84
2023/12/10 12:13:27;;;;;;;2.77;1.60;;;;;;;;;;6315414;22;20380;-85
2023/12/10 12:15:54;;;;;;;4.93;1.63;;;;;;;;;;6313212;22;20386;-86
2023/12/10 12:18:24;;;;;;;6.53;2.20;;;;;;;;;;6313219;22;20372;-86
2023/12/10 12:20:50;;;;;;;3.43;1.53;;;;;;;;;;6310527;22;20392;-86
2023/12/10 12:23:19;;;;;;;10.40;2.50;;;;;;;;;;6314905;22;20383;-85
2023/12/10 12:25:46;;;;;;;5.70;2.13;;;;;;;;;;6309072;22;20390;-89
2023/12/10 12:28:12;;;;;;;4.10;2.00;;;;;;;;;;6311358;22;20524;-88
2023/12/10 12:30:38;;;;;;;8.97;2.13;;;;;;;;;;6311497;22;20457;-85
2023/12/10 12:33:04;;;;;;;4.77;1.87;;;;;;;;;;6312964;22;20482;-86
2023/12/10 12:35:31;;;;;;;4.70;2.10;;;;;;;;;;6338740;22;20368;-87
2023/12/10 12:37:57;;;;;;;13.53;2.30;;;;;;;;;;6314625;22;20376;-85
2023/12/10 12:40:23;;;;;;;8.83;2.00;;;;;;;;;;6315678;22;20380;-86
2023/12/10 12:42:51;;;;;;;11.53;2.53;;;;;;;;;;6317974;22;20376;-87
2023/12/10 12:45:18;;;;;;;11.17;2.27;;;;;;;;;;6313864;22;20387;-87
2023/12/10 12:47:46;;;;;;;8.40;3.80;;;;;;;;;;6314030;22;20433;-87
2023/12/10 12:50:13;;;;;;;5.20;2.37;;;;;;;;;;6313357;22;20411;-87
2023/12/10 12:52:39;;;;;;;5.40;2.20;;;;;;;;;;6309364;22;20383;-87
2023/12/10 12:55:06;;;;;;;9.43;1.93;;;;;;;;;;6339878;22;20350;-86
2023/12/10 12:57:32;;;;;;;6.80;1.20;;;;;;;;;;6311906;22;20917;-87
2023/12/10 13:00:01;;;;;;;5.77;1.50;;;;;;;;;;6309776;22;20371;-87
2023/12/10 13:02:27;;;;;;;8.40;1.87;;;;;;;;;;6315013;22;20371;-87
2023/12/10 13:04:54;;;;;;;4.13;2.00;;;;;;;;;;6312368;22;20384;-86
2023/12/10 13:07:20;;;;;;;7.87;2.50;;;;;;;;;;6318169;22;20370;-86
2023/12/10 13:09:49;;;;;;;5.20;1.73;;;;;;;;;;6313110;22;20490;-86
2023/12/10 13:12:16;;;;;;;4.67;1.37;;;;;;;;;;6308401;22;20418;-86
2023/12/10 13:14:42;;;;;;;4.67;1.37;;;;;;;;;;6312936;22;21220;-88
2023/12/10 13:17:10;;;;;;;9.87;1.97;;;;;;;;;;6309675;22;21378;-86
2023/12/10 13:19:36;;;;;;;3.17;1.67;;;;;;;;;;6338510;22;20781;-86
2023/12/10 13:22:02;;;;;;;2.70;1.77;;;;;;;;;;6310072;22;20433;-86
2023/12/10 13:24:28;;;;;;;3.13;1.57;;;;;;;;;;6314035;22;20379;-86
2023/12/10 13:26:54;;;;;;;3.10;1.60;;;;;;;;;;6313364;22;20411;-86
2023/12/10 13:29:20;;;;;;;9.83;2.60;;;;;;;;;;6312757;22;20405;-86
2023/12/10 13:31:46;;;;;;;5.83;1.30;;;;;;;;;;6311264;22;20469;-87
2023/12/10 13:34:12;;;;;;;5.90;1.77;;;;;;;;;;6313821;22;20375;-87
2023/12/10 13:36:39;;;;;;;5.13;1.93;;;;;;;;;;6312604;22;20406;-86
2023/12/10 13:39:05;;;;;;;4.93;1.20;;;;;;;;;;6311875;22;20756;-87
2023/12/10 13:41:31;;;;;;;6.57;1.70;;;;;;;;;;6311530;22;20401;-87
2023/12/10 13:43:57;;;;;;;6.80;1.97;;;;;;;;;;6338613;22;20348;-87
2023/12/10 13:46:26;;;;;;;5.00;2.37;;;;;;;;;;6311114;22;20818;-87
2023/12/10 13:48:52;;;;;;;6.00;1.93;;;;;;;;;;6316785;22;20375;-89
2023/12/10 13:51:20;;;;;;;2.60;1.27;;;;;;;;;;6333714;22;20403;-87
2023/12/10 13:53:46;;;;;;;5.73;1.70;;;;;;;;;;6310581;22;20376;-88
2023/12/10 13:56:15;;;;;;;3.57;2.20;;;;;;;;;;6310689;22;20950;-85
2023/12/10 13:58:41;;;;;;;3.30;1.63;;;;;;;;;;6312471;22;20356;-86
2023/12/10 14:01:08;;;;;;;11.33;2.70;;;;;;;;;;6312821;22;20379;-85
2023/12/10 14:03:34;;;;;;;5.10;2.53;;;;;;;;;;6247202;22;20408;-86
2023/12/10 14:06:00;;;;;;;7.23;2.07;;;;;;;;;;6220656;22;20389;-85
2023/12/10 14:08:26;;;;;;;10.07;5.40;;;;;;;;;;6223401;22;20390;-85
2023/12/10 14:10:53;;;;;;;2.30;1.63;;;;;;;;;;6253364;22;20490;-86
2023/12/10 14:13:19;;;;;;;5.50;1.30;;;;;;;;;;6224272;22;21136;-87
2023/12/10 14:15:45;;;;;;;2.60;1.67;;;;;;;;;;6224708;22;20381;-87
2023/12/10 14:18:11;;;;;;;6.17;1.40;;;;;;;;;;6222748;22;20409;-87
2023/12/10 14:20:39;;;;;;;7.10;2.57;;;;;;;;;;6226976;22;20376;-88
2023/12/10 14:23:06;;;;;;;5.57;1.83;;;;;;;;;;6224649;22;20987;-86
2023/12/10 14:25:32;;;;;;;8.20;2.30;;;;;;;;;;6225025;22;20400;-90
2023/12/10 14:27:58;;;;;;;6.43;2.43;;;;;;;;;;6226397;22;20381;-87
2023/12/10 14:30:24;;;;;;;5.50;2.27;;;;;;;;;;6224481;22;20423;-87
2023/12/10 14:32:50;;;;;;;4.23;1.70;;;;;;;;;;6249966;22;20400;-86
2023/12/10 14:35:16;;;;;;;13.77;2.73;;;;;;;;;;6294762;22;20372;-86